sensor_id;sensor_type;location;lat;lon;timestamp;temperature;humidity
48515;DHT22;34309;47.260;2.796;2022-07-15T00:01:45;28.00;29.50
48515;DHT22;34309;47.260;2.796;2022-07-15T00:04:11;27.90;29.40
48515;DHT22;34309;47.260;2.796;2022-07-15T00:06:37;28.00;29.40
48515;DHT22;34309;47.260;2.796;2022-07-15T00:09:03;27.90;29.40
48515;DHT22;34309;47.260;2.796;2022-07-15T00:11:29;28.00;29.50
48515;DHT22;34309;47.260;2.796;2022-07-15T00:13:55;27.90;29.30
48515;DHT22;34309;47.260;2.796;2022-07-15T00:16:21;28.00;29.40
48515;DHT22;34309;47.260;2.796;2022-07-15T00:18:47;27.90;29.20
48515;DHT22;34309;47.260;2.796;2022-07-15T00:21:12;27.90;29.30
48515;DHT22;34309;47.260;2.796;2022-07-15T00:23:38;27.90;29.30
48515;DHT22;34309;47.260;2.796;2022-07-15T00:26:04;27.90;29.30
48515;DHT22;34309;47.260;2.796;2022-07-15T00:28:29;27.90;29.30
48515;DHT22;34309;47.260;2.796;2022-07-15T00:30:55;27.90;29.20
48515;DHT22;34309;47.260;2.796;2022-07-15T00:33:21;27.90;29.20
48515;DHT22;34309;47.260;2.796;2022-07-15T00:35:47;27.90;29.10
48515;DHT22;34309;47.260;2.796;2022-07-15T00:38:13;27.90;29.20
48515;DHT22;34309;47.260;2.796;2022-07-15T00:40:43;27.90;29.20
48515;DHT22;34309;47.260;2.796;2022-07-15T00:43:10;27.90;29.20
48515;DHT22;34309;47.260;2.796;2022-07-15T00:45:35;27.90;29.30
48515;DHT22;34309;47.260;2.796;2022-07-15T00:48:01;27.90;29.20
48515;DHT22;34309;47.260;2.796;2022-07-15T00:50:28;27.90;29.30
48515;DHT22;34309;47.260;2.796;2022-07-15T00:53:03;27.90;29.30
48515;DHT22;34309;47.260;2.796;2022-07-15T00:55:40;27.90;29.00
48515;DHT22;34309;47.260;2.796;2022-07-15T00:58:08;27.90;29.20
48515;DHT22;34309;47.260;2.796;2022-07-15T01:00:35;27.90;29.30
48515;DHT22;34309;47.260;2.796;2022-07-15T01:03:01;27.90;29.10
48515;DHT22;34309;47.260;2.796;2022-07-15T01:05:28;27.90;29.30
48515;DHT22;34309;47.260;2.796;2022-07-15T01:07:54;27.90;29.30
48515;DHT22;34309;47.260;2.796;2022-07-15T01:10:21;27.90;29.20
48515;DHT22;34309;47.260;2.796;2022-07-15T01:12:49;27.90;29.40
48515;DHT22;34309;47.260;2.796;2022-07-15T01:15:15;27.90;29.30
48515;DHT22;34309;47.260;2.796;2022-07-15T01:17:42;27.80;29.20
48515;DHT22;34309;47.260;2.796;2022-07-15T01:20:10;27.90;29.30
48515;DHT22;34309;47.260;2.796;2022-07-15T01:22:36;27.90;29.20
48515;DHT22;34309;47.260;2.796;2022-07-15T01:25:02;27.90;29.30
48515;DHT22;34309;47.260;2.796;2022-07-15T01:27:27;27.90;29.10
48515;DHT22;34309;47.260;2.796;2022-07-15T01:29:53;27.90;29.20
48515;DHT22;34309;47.260;2.796;2022-07-15T01:32:19;27.80;29.20
48515;DHT22;34309;47.260;2.796;2022-07-15T01:34:45;27.80;29.10
48515;DHT22;34309;47.260;2.796;2022-07-15T01:37:14;27.80;29.00
48515;DHT22;34309;47.260;2.796;2022-07-15T01:39:40;27.80;29.10
48515;DHT22;34309;47.260;2.796;2022-07-15T01:42:06;27.80;29.20
48515;DHT22;34309;47.260;2.796;2022-07-15T01:44:32;27.80;29.10
48515;DHT22;34309;47.260;2.796;2022-07-15T01:46:57;27.80;29.40
48515;DHT22;34309;47.260;2.796;2022-07-15T01:49:23;27.80;29.10
48515;DHT22;34309;47.260;2.796;2022-07-15T01:51:53;27.80;29.20
48515;DHT22;34309;47.260;2.796;2022-07-15T01:54:21;27.80;29.10
48515;DHT22;34309;47.260;2.796;2022-07-15T01:56:51;27.80;29.20
48515;DHT22;34309;47.260;2.796;2022-07-15T01:59:17;27.80;29.10
48515;DHT22;34309;47.260;2.796;2022-07-15T02:01:44;27.80;29.00
48515;DHT22;34309;47.260;2.796;2022-07-15T02:04:10;27.80;29.00
48515;DHT22;34309;47.260;2.796;2022-07-15T02:06:38;27.80;29.00
48515;DHT22;34309;47.260;2.796;2022-07-15T02:09:04;27.80;29.00
48515;DHT22;34309;47.260;2.796;2022-07-15T02:11:30;27.80;29.10
48515;DHT22;34309;47.260;2.796;2022-07-15T02:13:56;27.70;28.90
48515;DHT22;34309;47.260;2.796;2022-07-15T02:16:25;27.80;29.10
48515;DHT22;34309;47.260;2.796;2022-07-15T02:18:51;27.70;29.00
48515;DHT22;34309;47.260;2.796;2022-07-15T02:21:17;27.80;29.10
48515;DHT22;34309;47.260;2.796;2022-07-15T02:23:43;27.80;29.20
48515;DHT22;34309;47.260;2.796;2022-07-15T02:26:09;27.80;29.10
48515;DHT22;34309;47.260;2.796;2022-07-15T02:28:34;27.70;29.10
48515;DHT22;34309;47.260;2.796;2022-07-15T02:31:00;27.70;28.90
48515;DHT22;34309;47.260;2.796;2022-07-15T02:33:26;27.70;29.10
48515;DHT22;34309;47.260;2.796;2022-07-15T02:35:52;27.70;29.20
48515;DHT22;34309;47.260;2.796;2022-07-15T02:38:17;27.70;29.00
48515;DHT22;34309;47.260;2.796;2022-07-15T02:40:44;27.70;28.90
48515;DHT22;34309;47.260;2.796;2022-07-15T02:43:10;27.70;29.00
48515;DHT22;34309;47.260;2.796;2022-07-15T02:45:37;27.70;29.30
48515;DHT22;34309;47.260;2.796;2022-07-15T02:48:04;27.70;29.10
48515;DHT22;34309;47.260;2.796;2022-07-15T02:50:30;27.70;28.90
48515;DHT22;34309;47.260;2.796;2022-07-15T02:52:56;27.70;28.90
48515;DHT22;34309;47.260;2.796;2022-07-15T02:55:22;27.70;29.00
48515;DHT22;34309;47.260;2.796;2022-07-15T02:57:47;27.70;29.10
48515;DHT22;34309;47.260;2.796;2022-07-15T03:00:15;27.70;29.10
48515;DHT22;34309;47.260;2.796;2022-07-15T03:02:46;27.70;29.10
48515;DHT22;34309;47.260;2.796;2022-07-15T03:05:12;27.60;29.00
48515;DHT22;34309;47.260;2.796;2022-07-15T03:07:38;27.70;28.90
48515;DHT22;34309;47.260;2.796;2022-07-15T03:10:05;27.60;29.00
48515;DHT22;34309;47.260;2.796;2022-07-15T03:12:31;27.60;28.80
48515;DHT22;34309;47.260;2.796;2022-07-15T03:14:57;27.60;28.90
48515;DHT22;34309;47.260;2.796;2022-07-15T03:17:23;27.70;28.90
48515;DHT22;34309;47.260;2.796;2022-07-15T03:19:49;27.70;29.00
48515;DHT22;34309;47.260;2.796;2022-07-15T03:22:15;27.60;28.90
48515;DHT22;34309;47.260;2.796;2022-07-15T03:24:41;27.60;28.90
48515;DHT22;34309;47.260;2.796;2022-07-15T03:27:07;27.60;28.80
48515;DHT22;34309;47.260;2.796;2022-07-15T03:29:34;27.60;28.90
48515;DHT22;34309;47.260;2.796;2022-07-15T03:31:59;27.60;28.90
48515;DHT22;34309;47.260;2.796;2022-07-15T03:34:25;27.60;28.80
48515;DHT22;34309;47.260;2.796;2022-07-15T03:36:52;27.60;28.90
48515;DHT22;34309;47.260;2.796;2022-07-15T03:39:18;27.60;28.80
48515;DHT22;34309;47.260;2.796;2022-07-15T03:41:44;27.60;28.80
48515;DHT22;34309;47.260;2.796;2022-07-15T03:44:09;27.60;28.80
48515;DHT22;34309;47.260;2.796;2022-07-15T03:46:35;27.60;28.90
48515;DHT22;34309;47.260;2.796;2022-07-15T03:49:02;27.60;28.80
48515;DHT22;34309;47.260;2.796;2022-07-15T03:51:28;27.60;28.90
48515;DHT22;34309;47.260;2.796;2022-07-15T03:54:01;27.60;28.70
48515;DHT22;34309;47.260;2.796;2022-07-15T03:56:29;27.60;28.70
48515;DHT22;34309;47.260;2.796;2022-07-15T03:58:55;27.60;28.80
48515;DHT22;34309;47.260;2.796;2022-07-15T04:01:21;27.60;28.90
48515;DHT22;34309;47.260;2.796;2022-07-15T04:03:48;27.60;29.00
48515;DHT22;34309;47.260;2.796;2022-07-15T04:06:15;27.60;28.90
48515;DHT22;34309;47.260;2.796;2022-07-15T04:08:41;27.60;29.10
48515;DHT22;34309;47.260;2.796;2022-07-15T04:11:07;27.60;29.00
48515;DHT22;34309;47.260;2.796;2022-07-15T04:13:32;27.50;28.90
48515;DHT22;34309;47.260;2.796;2022-07-15T04:15:58;27.60;28.90
48515;DHT22;34309;47.260;2.796;2022-07-15T04:18:24;27.60;28.90
48515;DHT22;34309;47.260;2.796;2022-07-15T04:20:49;27.60;28.90
48515;DHT22;34309;47.260;2.796;2022-07-15T04:23:15;27.50;29.00
48515;DHT22;34309;47.260;2.796;2022-07-15T04:25:41;27.50;29.10
48515;DHT22;34309;47.260;2.796;2022-07-15T04:28:07;27.50;29.10
48515;DHT22;34309;47.260;2.796;2022-07-15T04:30:33;27.50;29.00
48515;DHT22;34309;47.260;2.796;2022-07-15T04:32:59;27.50;28.90
48515;DHT22;34309;47.260;2.796;2022-07-15T04:35:26;27.50;29.10
48515;DHT22;34309;47.260;2.796;2022-07-15T04:37:51;27.50;29.00
48515;DHT22;34309;47.260;2.796;2022-07-15T04:40:17;27.50;29.10
48515;DHT22;34309;47.260;2.796;2022-07-15T04:42:43;27.50;29.20
48515;DHT22;34309;47.260;2.796;2022-07-15T04:45:09;27.50;29.00
48515;DHT22;34309;47.260;2.796;2022-07-15T04:47:35;27.50;29.10
48515;DHT22;34309;47.260;2.796;2022-07-15T04:50:01;27.50;29.20
48515;DHT22;34309;47.260;2.796;2022-07-15T04:52:46;27.50;29.10
48515;DHT22;34309;47.260;2.796;2022-07-15T04:55:13;27.50;29.20
48515;DHT22;34309;47.260;2.796;2022-07-15T04:57:39;27.50;29.10
48515;DHT22;34309;47.260;2.796;2022-07-15T05:00:06;27.50;29.20
48515;DHT22;34309;47.260;2.796;2022-07-15T05:02:32;27.50;29.30
48515;DHT22;34309;47.260;2.796;2022-07-15T05:04:58;27.40;29.10
48515;DHT22;34309;47.260;2.796;2022-07-15T05:07:23;27.40;29.00
48515;DHT22;34309;47.260;2.796;2022-07-15T05:09:49;27.50;29.40
48515;DHT22;34309;47.260;2.796;2022-07-15T05:12:15;27.50;29.40
48515;DHT22;34309;47.260;2.796;2022-07-15T05:14:41;27.40;29.60
48515;DHT22;34309;47.260;2.796;2022-07-15T05:17:09;27.40;29.00
48515;DHT22;34309;47.260;2.796;2022-07-15T05:19:36;27.40;28.80
48515;DHT22;34309;47.260;2.796;2022-07-15T05:22:01;27.40;28.80
48515;DHT22;34309;47.260;2.796;2022-07-15T05:24:27;27.40;28.80
48515;DHT22;34309;47.260;2.796;2022-07-15T05:26:53;27.40;28.80
48515;DHT22;34309;47.260;2.796;2022-07-15T05:29:19;27.40;28.70
48515;DHT22;34309;47.260;2.796;2022-07-15T05:31:48;27.40;29.10
48515;DHT22;34309;47.260;2.796;2022-07-15T05:34:15;27.40;29.10
48515;DHT22;34309;47.260;2.796;2022-07-15T05:36:40;27.40;29.00
48515;DHT22;34309;47.260;2.796;2022-07-15T05:39:06;27.40;28.80
48515;DHT22;34309;47.260;2.796;2022-07-15T05:41:32;27.30;28.60
48515;DHT22;34309;47.260;2.796;2022-07-15T05:43:59;27.30;28.90
48515;DHT22;34309;47.260;2.796;2022-07-15T05:46:24;27.30;28.70
48515;DHT22;34309;47.260;2.796;2022-07-15T05:48:50;27.40;29.00
48515;DHT22;34309;47.260;2.796;2022-07-15T05:51:16;27.40;28.60
48515;DHT22;34309;47.260;2.796;2022-07-15T05:53:42;27.40;29.10
48515;DHT22;34309;47.260;2.796;2022-07-15T05:56:08;27.30;29.00
48515;DHT22;34309;47.260;2.796;2022-07-15T05:58:34;27.30;28.80
48515;DHT22;34309;47.260;2.796;2022-07-15T06:01:00;27.30;28.80
48515;DHT22;34309;47.260;2.796;2022-07-15T06:03:26;27.30;28.90
48515;DHT22;34309;47.260;2.796;2022-07-15T06:05:52;27.30;28.60
48515;DHT22;34309;47.260;2.796;2022-07-15T06:08:17;27.30;28.80
48515;DHT22;34309;47.260;2.796;2022-07-15T06:10:43;27.30;28.90
48515;DHT22;34309;47.260;2.796;2022-07-15T06:13:09;27.30;28.60
48515;DHT22;34309;47.260;2.796;2022-07-15T06:15:35;27.30;28.60
48515;DHT22;34309;47.260;2.796;2022-07-15T06:18:02;27.30;28.90
48515;DHT22;34309;47.260;2.796;2022-07-15T06:20:29;27.30;28.80
48515;DHT22;34309;47.260;2.796;2022-07-15T06:22:55;27.30;28.70
48515;DHT22;34309;47.260;2.796;2022-07-15T06:25:21;27.30;28.60
48515;DHT22;34309;47.260;2.796;2022-07-15T06:27:46;27.30;28.90
48515;DHT22;34309;47.260;2.796;2022-07-15T06:30:12;27.20;28.70
48515;DHT22;34309;47.260;2.796;2022-07-15T06:32:38;27.30;28.70
48515;DHT22;34309;47.260;2.796;2022-07-15T06:35:04;27.30;28.60
48515;DHT22;34309;47.260;2.796;2022-07-15T06:37:30;27.30;28.50
48515;DHT22;34309;47.260;2.796;2022-07-15T06:39:55;27.20;28.50
48515;DHT22;34309;47.260;2.796;2022-07-15T06:42:22;27.20;28.50
48515;DHT22;34309;47.260;2.796;2022-07-15T06:44:48;27.20;28.40
48515;DHT22;34309;47.260;2.796;2022-07-15T06:47:14;27.20;28.60
48515;DHT22;34309;47.260;2.796;2022-07-15T06:49:40;27.20;28.50
48515;DHT22;34309;47.260;2.796;2022-07-15T06:52:06;27.20;28.70
48515;DHT22;34309;47.260;2.796;2022-07-15T06:54:32;27.20;28.60
48515;DHT22;34309;47.260;2.796;2022-07-15T06:56:58;27.20;28.40
48515;DHT22;34309;47.260;2.796;2022-07-15T06:59:25;27.20;28.70
48515;DHT22;34309;47.260;2.796;2022-07-15T07:01:51;27.20;29.00
48515;DHT22;34309;47.260;2.796;2022-07-15T07:04:18;27.20;28.50
48515;DHT22;34309;47.260;2.796;2022-07-15T07:06:44;27.20;28.60
48515;DHT22;34309;47.260;2.796;2022-07-15T07:09:11;27.20;28.40
48515;DHT22;34309;47.260;2.796;2022-07-15T07:11:37;27.20;28.50
48515;DHT22;34309;47.260;2.796;2022-07-15T07:14:05;27.20;28.80
48515;DHT22;34309;47.260;2.796;2022-07-15T07:16:30;27.20;28.80
48515;DHT22;34309;47.260;2.796;2022-07-15T07:18:56;27.20;28.80
48515;DHT22;34309;47.260;2.796;2022-07-15T07:21:22;27.20;28.80
48515;DHT22;34309;47.260;2.796;2022-07-15T07:23:48;27.20;28.70
48515;DHT22;34309;47.260;2.796;2022-07-15T07:26:15;27.20;28.50
48515;DHT22;34309;47.260;2.796;2022-07-15T07:28:41;27.20;28.80
48515;DHT22;34309;47.260;2.796;2022-07-15T07:31:09;27.20;28.90
48515;DHT22;34309;47.260;2.796;2022-07-15T07:33:34;27.20;29.00
48515;DHT22;34309;47.260;2.796;2022-07-15T07:36:01;27.10;28.80
48515;DHT22;34309;47.260;2.796;2022-07-15T07:38:29;27.20;28.90
48515;DHT22;34309;47.260;2.796;2022-07-15T07:40:54;27.20;29.00
48515;DHT22;34309;47.260;2.796;2022-07-15T07:43:20;27.20;28.80
48515;DHT22;34309;47.260;2.796;2022-07-15T07:45:47;27.20;28.80
48515;DHT22;34309;47.260;2.796;2022-07-15T07:48:13;27.10;28.70
48515;DHT22;34309;47.260;2.796;2022-07-15T07:50:39;27.10;28.60
48515;DHT22;34309;47.260;2.796;2022-07-15T07:53:05;27.20;28.70
48515;DHT22;34309;47.260;2.796;2022-07-15T07:55:31;27.20;28.70
48515;DHT22;34309;47.260;2.796;2022-07-15T07:57:58;27.20;28.90
48515;DHT22;34309;47.260;2.796;2022-07-15T08:00:26;27.10;28.80
48515;DHT22;34309;47.260;2.796;2022-07-15T08:02:54;27.20;28.90
48515;DHT22;34309;47.260;2.796;2022-07-15T08:05:20;27.20;28.90
48515;DHT22;34309;47.260;2.796;2022-07-15T08:07:46;27.20;28.80
48515;DHT22;34309;47.260;2.796;2022-07-15T08:10:13;27.10;28.90
48515;DHT22;34309;47.260;2.796;2022-07-15T08:12:39;27.20;28.80
48515;DHT22;34309;47.260;2.796;2022-07-15T08:15:07;27.10;28.60
48515;DHT22;34309;47.260;2.796;2022-07-15T08:17:33;27.10;29.60
48515;DHT22;34309;47.260;2.796;2022-07-15T08:19:59;27.10;28.80
48515;DHT22;34309;47.260;2.796;2022-07-15T08:22:24;27.10;28.90
48515;DHT22;34309;47.260;2.796;2022-07-15T08:24:50;27.10;28.70
48515;DHT22;34309;47.260;2.796;2022-07-15T08:27:16;27.10;28.70
48515;DHT22;34309;47.260;2.796;2022-07-15T08:29:42;27.10;28.70
48515;DHT22;34309;47.260;2.796;2022-07-15T08:32:08;27.10;28.80
48515;DHT22;34309;47.260;2.796;2022-07-15T08:34:34;27.10;29.00
48515;DHT22;34309;47.260;2.796;2022-07-15T08:37:00;27.10;28.70
48515;DHT22;34309;47.260;2.796;2022-07-15T08:39:26;27.20;29.00
48515;DHT22;34309;47.260;2.796;2022-07-15T08:41:51;27.10;28.90
48515;DHT22;34309;47.260;2.796;2022-07-15T08:44:17;27.10;28.80
48515;DHT22;34309;47.260;2.796;2022-07-15T08:46:48;27.10;29.00
48515;DHT22;34309;47.260;2.796;2022-07-15T08:49:15;27.10;28.90
48515;DHT22;34309;47.260;2.796;2022-07-15T08:51:44;27.10;28.80
48515;DHT22;34309;47.260;2.796;2022-07-15T08:54:11;27.10;28.80
48515;DHT22;34309;47.260;2.796;2022-07-15T08:56:37;27.10;28.90
48515;DHT22;34309;47.260;2.796;2022-07-15T08:59:04;27.10;29.50
48515;DHT22;34309;47.260;2.796;2022-07-15T09:01:31;27.10;28.90
48515;DHT22;34309;47.260;2.796;2022-07-15T09:03:58;27.10;28.90
48515;DHT22;34309;47.260;2.796;2022-07-15T09:08:57;27.10;28.90
48515;DHT22;34309;47.260;2.796;2022-07-15T09:11:30;27.10;28.80
48515;DHT22;34309;47.260;2.796;2022-07-15T09:13:58;27.10;28.90
48515;DHT22;34309;47.260;2.796;2022-07-15T09:16:24;27.10;28.90
48515;DHT22;34309;47.260;2.796;2022-07-15T09:18:51;27.10;28.80
48515;DHT22;34309;47.260;2.796;2022-07-15T09:21:22;27.10;28.80
48515;DHT22;34309;47.260;2.796;2022-07-15T09:23:49;27.10;29.00
48515;DHT22;34309;47.260;2.796;2022-07-15T09:28:55;27.10;29.00
48515;DHT22;34309;47.260;2.796;2022-07-15T09:31:35;27.10;29.20
48515;DHT22;34309;47.260;2.796;2022-07-15T09:34:21;27.10;28.90
48515;DHT22;34309;47.260;2.796;2022-07-15T09:36:49;27.10;28.90
48515;DHT22;34309;47.260;2.796;2022-07-15T09:39:18;27.10;28.90
48515;DHT22;34309;47.260;2.796;2022-07-15T09:41:45;27.10;29.10
48515;DHT22;34309;47.260;2.796;2022-07-15T09:44:12;27.10;29.00
48515;DHT22;34309;47.260;2.796;2022-07-15T09:49:30;27.10;29.00
48515;DHT22;34309;47.260;2.796;2022-07-15T09:54:31;27.10;28.90
48515;DHT22;34309;47.260;2.796;2022-07-15T09:57:02;27.20;28.90
48515;DHT22;34309;47.260;2.796;2022-07-15T09:59:29;27.10;28.90
48515;DHT22;34309;47.260;2.796;2022-07-15T10:01:55;27.10;28.80
48515;DHT22;34309;47.260;2.796;2022-07-15T10:04:23;27.20;29.20
48515;DHT22;34309;47.260;2.796;2022-07-15T10:06:51;27.10;29.00
48515;DHT22;34309;47.260;2.796;2022-07-15T10:09:29;27.20;29.00
48515;DHT22;34309;47.260;2.796;2022-07-15T10:11:58;27.20;29.00
48515;DHT22;34309;47.260;2.796;2022-07-15T10:17:17;27.20;29.00
48515;DHT22;34309;47.260;2.796;2022-07-15T10:25:23;27.20;28.90
48515;DHT22;34309;47.260;2.796;2022-07-15T10:30:32;27.10;29.10
48515;DHT22;34309;47.260;2.796;2022-07-15T10:35:45;27.20;29.00
48515;DHT22;34309;47.260;2.796;2022-07-15T10:38:30;27.20;28.90
48515;DHT22;34309;47.260;2.796;2022-07-15T10:41:00;27.20;28.90
48515;DHT22;34309;47.260;2.796;2022-07-15T10:43:51;27.20;28.80
48515;DHT22;34309;47.260;2.796;2022-07-15T10:46:19;27.20;29.00
48515;DHT22;34309;47.260;2.796;2022-07-15T10:56:56;27.20;28.80
48515;DHT22;34309;47.260;2.796;2022-07-15T10:59:24;27.20;29.00
48515;DHT22;34309;47.260;2.796;2022-07-15T11:04:29;27.20;29.10
48515;DHT22;34309;47.260;2.796;2022-07-15T11:15:17;27.20;28.90
48515;DHT22;34309;47.260;2.796;2022-07-15T11:17:46;27.20;29.00
48515;DHT22;34309;47.260;2.796;2022-07-15T11:20:29;27.20;29.10
48515;DHT22;34309;47.260;2.796;2022-07-15T11:22:58;27.20;29.00
48515;DHT22;34309;47.260;2.796;2022-07-15T11:25:33;27.20;28.90
48515;DHT22;34309;47.260;2.796;2022-07-15T11:28:12;27.30;29.00
48515;DHT22;34309;47.260;2.796;2022-07-15T11:30:56;27.20;28.90
48515;DHT22;34309;47.260;2.796;2022-07-15T11:33:24;27.30;29.50
48515;DHT22;34309;47.260;2.796;2022-07-15T11:35:54;27.20;28.80
48515;DHT22;34309;47.260;2.796;2022-07-15T11:38:22;27.30;29.00
48515;DHT22;34309;47.260;2.796;2022-07-15T11:40:53;27.20;28.80
48515;DHT22;34309;47.260;2.796;2022-07-15T11:43:37;27.30;29.10
48515;DHT22;34309;47.260;2.796;2022-07-15T11:46:22;27.20;29.10
48515;DHT22;34309;47.260;2.796;2022-07-15T11:48:51;27.20;28.70
48515;DHT22;34309;47.260;2.796;2022-07-15T11:51:27;27.30;28.90
48515;DHT22;34309;47.260;2.796;2022-07-15T11:53:53;27.30;28.90
48515;DHT22;34309;47.260;2.796;2022-07-15T11:56:19;27.30;28.90
48515;DHT22;34309;47.260;2.796;2022-07-15T11:58:49;27.30;28.90
48515;DHT22;34309;47.260;2.796;2022-07-15T12:01:21;27.30;28.90
48515;DHT22;34309;47.260;2.796;2022-07-15T12:03:52;27.30;28.80
48515;DHT22;34309;47.260;2.796;2022-07-15T12:06:20;27.30;29.00
48515;DHT22;34309;47.260;2.796;2022-07-15T12:08:48;27.30;29.10
48515;DHT22;34309;47.260;2.796;2022-07-15T12:11:26;27.30;28.90
48515;DHT22;34309;47.260;2.796;2022-07-15T12:14:00;27.30;29.00
48515;DHT22;34309;47.260;2.796;2022-07-15T12:16:30;27.30;29.00
48515;DHT22;34309;47.260;2.796;2022-07-15T12:19:04;27.30;29.00
48515;DHT22;34309;47.260;2.796;2022-07-15T12:21:31;27.30;29.00
48515;DHT22;34309;47.260;2.796;2022-07-15T12:24:09;27.30;29.10
48515;DHT22;34309;47.260;2.796;2022-07-15T12:26:41;27.30;29.00
48515;DHT22;34309;47.260;2.796;2022-07-15T12:29:09;27.30;29.00
48515;DHT22;34309;47.260;2.796;2022-07-15T12:31:37;27.30;29.00
48515;DHT22;34309;47.260;2.796;2022-07-15T12:34:03;27.30;28.90
48515;DHT22;34309;47.260;2.796;2022-07-15T12:36:32;27.40;29.10
48515;DHT22;34309;47.260;2.796;2022-07-15T12:39:11;27.30;29.00
48515;DHT22;34309;47.260;2.796;2022-07-15T12:41:38;27.40;29.10
48515;DHT22;34309;47.260;2.796;2022-07-15T12:44:05;27.40;29.10
48515;DHT22;34309;47.260;2.796;2022-07-15T12:46:51;27.40;29.10
48515;DHT22;34309;47.260;2.796;2022-07-15T12:52:35;27.30;29.40
48515;DHT22;34309;47.260;2.796;2022-07-15T12:55:21;27.30;29.10
48515;DHT22;34309;47.260;2.796;2022-07-15T12:57:47;27.40;29.10
48515;DHT22;34309;47.260;2.796;2022-07-15T13:00:15;27.40;29.10
48515;DHT22;34309;47.260;2.796;2022-07-15T13:05:28;27.40;29.20
48515;DHT22;34309;47.260;2.796;2022-07-15T13:07:54;27.40;29.20
48515;DHT22;34309;47.260;2.796;2022-07-15T13:10:19;27.40;29.10
48515;DHT22;34309;47.260;2.796;2022-07-15T13:12:45;27.40;29.10
48515;DHT22;34309;47.260;2.796;2022-07-15T13:15:11;27.40;29.10
48515;DHT22;34309;47.260;2.796;2022-07-15T13:17:37;27.40;29.20
48515;DHT22;34309;47.260;2.796;2022-07-15T13:20:04;27.40;29.30
48515;DHT22;34309;47.260;2.796;2022-07-15T13:22:33;27.40;29.10
48515;DHT22;34309;47.260;2.796;2022-07-15T13:24:59;27.40;29.20
48515;DHT22;34309;47.260;2.796;2022-07-15T13:27:25;27.40;29.10
48515;DHT22;34309;47.260;2.796;2022-07-15T13:29:51;27.50;29.20
48515;DHT22;34309;47.260;2.796;2022-07-15T13:32:17;27.50;29.10
48515;DHT22;34309;47.260;2.796;2022-07-15T13:34:42;27.40;29.10
48515;DHT22;34309;47.260;2.796;2022-07-15T13:37:08;27.50;29.20
48515;DHT22;34309;47.260;2.796;2022-07-15T13:39:34;27.50;29.10
48515;DHT22;34309;47.260;2.796;2022-07-15T13:42:00;27.50;29.20
48515;DHT22;34309;47.260;2.796;2022-07-15T13:44:25;27.40;29.10
48515;DHT22;34309;47.260;2.796;2022-07-15T13:46:51;27.40;29.10
48515;DHT22;34309;47.260;2.796;2022-07-15T13:49:17;27.50;29.20
48515;DHT22;34309;47.260;2.796;2022-07-15T13:51:42;27.50;29.20
48515;DHT22;34309;47.260;2.796;2022-07-15T13:54:08;27.50;29.20
48515;DHT22;34309;47.260;2.796;2022-07-15T13:56:35;27.50;29.30
48515;DHT22;34309;47.260;2.796;2022-07-15T13:59:02;27.50;29.10
48515;DHT22;34309;47.260;2.796;2022-07-15T14:01:29;27.50;29.10
48515;DHT22;34309;47.260;2.796;2022-07-15T14:03:57;27.50;29.30
48515;DHT22;34309;47.260;2.796;2022-07-15T14:06:23;27.50;29.20
48515;DHT22;34309;47.260;2.796;2022-07-15T14:08:49;27.50;29.20
48515;DHT22;34309;47.260;2.796;2022-07-15T14:11:15;27.50;29.20
48515;DHT22;34309;47.260;2.796;2022-07-15T14:13:41;27.50;29.20
48515;DHT22;34309;47.260;2.796;2022-07-15T14:16:07;27.50;29.10
48515;DHT22;34309;47.260;2.796;2022-07-15T14:18:33;27.50;29.10
48515;DHT22;34309;47.260;2.796;2022-07-15T14:21:11;27.60;29.10
48515;DHT22;34309;47.260;2.796;2022-07-15T14:23:37;27.50;29.10
48515;DHT22;34309;47.260;2.796;2022-07-15T14:26:03;27.60;29.20
48515;DHT22;34309;47.260;2.796;2022-07-15T14:28:29;27.50;29.10
48515;DHT22;34309;47.260;2.796;2022-07-15T14:30:55;27.50;29.20
48515;DHT22;34309;47.260;2.796;2022-07-15T14:33:21;27.50;29.30
48515;DHT22;34309;47.260;2.796;2022-07-15T14:35:47;27.60;29.20
48515;DHT22;34309;47.260;2.796;2022-07-15T14:38:14;27.50;29.10
48515;DHT22;34309;47.260;2.796;2022-07-15T14:40:40;27.60;29.20
48515;DHT22;34309;47.260;2.796;2022-07-15T14:43:05;27.60;29.40
48515;DHT22;34309;47.260;2.796;2022-07-15T14:45:31;27.60;29.00
48515;DHT22;34309;47.260;2.796;2022-07-15T14:47:57;27.60;29.10
48515;DHT22;34309;47.260;2.796;2022-07-15T14:50:23;27.60;29.10
48515;DHT22;34309;47.260;2.796;2022-07-15T14:52:49;27.60;29.00
48515;DHT22;34309;47.260;2.796;2022-07-15T14:55:14;27.60;29.20
48515;DHT22;34309;47.260;2.796;2022-07-15T14:57:40;27.60;29.10
48515;DHT22;34309;47.260;2.796;2022-07-15T15:00:06;27.60;29.00
48515;DHT22;34309;47.260;2.796;2022-07-15T15:02:32;27.60;28.90
48515;DHT22;34309;47.260;2.796;2022-07-15T15:04:58;27.60;29.00
48515;DHT22;34309;47.260;2.796;2022-07-15T15:07:24;27.60;29.20
48515;DHT22;34309;47.260;2.796;2022-07-15T15:09:49;27.60;29.00
48515;DHT22;34309;47.260;2.796;2022-07-15T15:12:15;27.60;28.90
48515;DHT22;34309;47.260;2.796;2022-07-15T15:14:41;27.60;28.90
48515;DHT22;34309;47.260;2.796;2022-07-15T15:17:07;27.60;28.90
48515;DHT22;34309;47.260;2.796;2022-07-15T15:19:33;27.60;28.90
48515;DHT22;34309;47.260;2.796;2022-07-15T15:21:59;27.60;29.00
48515;DHT22;34309;47.260;2.796;2022-07-15T15:24:25;27.60;29.00
48515;DHT22;34309;47.260;2.796;2022-07-15T15:26:51;27.60;28.90
48515;DHT22;34309;47.260;2.796;2022-07-15T15:29:18;27.70;29.10
48515;DHT22;34309;47.260;2.796;2022-07-15T15:31:44;27.70;28.90
48515;DHT22;34309;47.260;2.796;2022-07-15T15:34:09;27.60;28.90
48515;DHT22;34309;47.260;2.796;2022-07-15T15:36:35;27.60;28.90
48515;DHT22;34309;47.260;2.796;2022-07-15T15:39:02;27.60;28.90
48515;DHT22;34309;47.260;2.796;2022-07-15T15:41:28;27.70;28.90
48515;DHT22;34309;47.260;2.796;2022-07-15T15:43:54;27.60;28.80
48515;DHT22;34309;47.260;2.796;2022-07-15T15:46:20;27.70;28.50
48515;DHT22;34309;47.260;2.796;2022-07-15T15:48:45;27.70;28.90
48515;DHT22;34309;47.260;2.796;2022-07-15T15:51:11;27.70;28.80
48515;DHT22;34309;47.260;2.796;2022-07-15T15:53:37;27.70;28.60
48515;DHT22;34309;47.260;2.796;2022-07-15T15:56:03;27.70;28.70
48515;DHT22;34309;47.260;2.796;2022-07-15T15:58:29;27.70;28.60
48515;DHT22;34309;47.260;2.796;2022-07-15T16:00:54;27.70;28.50
48515;DHT22;34309;47.260;2.796;2022-07-15T16:03:21;27.70;28.60
48515;DHT22;34309;47.260;2.796;2022-07-15T16:05:47;27.70;28.70
48515;DHT22;34309;47.260;2.796;2022-07-15T16:08:13;27.70;28.10
48515;DHT22;34309;47.260;2.796;2022-07-15T16:10:39;27.70;28.40
48515;DHT22;34309;47.260;2.796;2022-07-15T16:13:04;27.70;27.80
48515;DHT22;34309;47.260;2.796;2022-07-15T16:15:30;27.70;28.30
48515;DHT22;34309;47.260;2.796;2022-07-15T16:17:56;27.70;28.30
48515;DHT22;34309;47.260;2.796;2022-07-15T16:20:22;27.80;28.40